sensor_id;sensor_type;location;lat;lon;timestamp;P1;durP1;ratioP1;P2;durP2;ratioP2
62798;SDS011;48842;51.046;13.796;2023-06-22T00:01:45;9.83;;;8.93;;
62798;SDS011;48842;51.046;13.796;2023-06-22T00:04:10;10.13;;;9.13;;
62798;SDS011;48842;51.046;13.796;2023-06-22T00:06:35;11.37;;;8.80;;
62798;SDS011;48842;51.046;13.796;2023-06-22T00:09:00;9.97;;;9.07;;
62798;SDS011;48842;51.046;13.796;2023-06-22T00:11:26;10.60;;;9.07;;
62798;SDS011;48842;51.046;13.796;2023-06-22T00:13:52;12.30;;;10.53;;
62798;SDS011;48842;51.046;13.796;2023-06-22T00:16:18;9.57;;;8.77;;
62798;SDS011;48842;51.046;13.796;2023-06-22T00:18:43;11.13;;;10.03;;
62798;SDS011;48842;51.046;13.796;2023-06-22T00:21:12;10.77;;;9.70;;
62798;SDS011;48842;51.046;13.796;2023-06-22T00:23:37;11.30;;;9.47;;
62798;SDS011;48842;51.046;13.796;2023-06-22T00:26:02;11.67;;;9.00;;
62798;SDS011;48842;51.046;13.796;2023-06-22T00:28:27;10.10;;;9.10;;
62798;SDS011;48842;51.046;13.796;2023-06-22T00:30:53;10.70;;;8.97;;
62798;SDS011;48842;51.046;13.796;2023-06-22T00:33:19;11.43;;;10.33;;
62798;SDS011;48842;51.046;13.796;2023-06-22T00:35:44;9.67;;;8.80;;
62798;SDS011;48842;51.046;13.796;2023-06-22T00:38:10;11.33;;;9.93;;
62798;SDS011;48842;51.046;13.796;2023-06-22T00:40:35;9.33;;;8.37;;
62798;SDS011;48842;51.046;13.796;2023-06-22T00:43:00;9.73;;;8.83;;
62798;SDS011;48842;51.046;13.796;2023-06-22T00:45:26;12.07;;;9.60;;
62798;SDS011;48842;51.046;13.796;2023-06-22T00:47:52;9.93;;;9.03;;
62798;SDS011;48842;51.046;13.796;2023-06-22T00:50:20;9.80;;;8.90;;
62798;SDS011;48842;51.046;13.796;2023-06-22T00:52:53;10.20;;;9.17;;
62798;SDS011;48842;51.046;13.796;2023-06-22T00:55:21;9.13;;;8.33;;
62798;SDS011;48842;51.046;13.796;2023-06-22T00:57:48;10.37;;;9.00;;
62798;SDS011;48842;51.046;13.796;2023-06-22T01:00:14;9.63;;;8.77;;
62798;SDS011;48842;51.046;13.796;2023-06-22T01:02:44;9.80;;;8.80;;
62798;SDS011;48842;51.046;13.796;2023-06-22T01:05:12;12.50;;;8.63;;
62798;SDS011;48842;51.046;13.796;2023-06-22T01:10:28;9.90;;;8.90;;
62798;SDS011;48842;51.046;13.796;2023-06-22T01:13:31;10.00;;;9.00;;
62798;SDS011;48842;51.046;13.796;2023-06-22T01:16:03;11.10;;;10.00;;
62798;SDS011;48842;51.046;13.796;2023-06-22T01:18:35;9.60;;;8.50;;
62798;SDS011;48842;51.046;13.796;2023-06-22T01:21:04;10.13;;;9.03;;
62798;SDS011;48842;51.046;13.796;2023-06-22T01:29:12;10.17;;;9.03;;
62798;SDS011;48842;51.046;13.796;2023-06-22T01:31:40;9.73;;;8.93;;
62798;SDS011;48842;51.046;13.796;2023-06-22T01:34:07;10.30;;;9.07;;
62798;SDS011;48842;51.046;13.796;2023-06-22T01:36:33;10.03;;;9.00;;
62798;SDS011;48842;51.046;13.796;2023-06-22T01:39:00;10.50;;;9.43;;
62798;SDS011;48842;51.046;13.796;2023-06-22T01:41:27;15.50;;;10.10;;
62798;SDS011;48842;51.046;13.796;2023-06-22T01:43:54;10.93;;;9.83;;
62798;SDS011;48842;51.046;13.796;2023-06-22T01:46:21;10.37;;;8.70;;
62798;SDS011;48842;51.046;13.796;2023-06-22T01:48:46;10.70;;;9.70;;
62798;SDS011;48842;51.046;13.796;2023-06-22T01:51:12;10.50;;;9.60;;
62798;SDS011;48842;51.046;13.796;2023-06-22T01:53:38;10.50;;;9.47;;
62798;SDS011;48842;51.046;13.796;2023-06-22T01:56:03;9.10;;;8.30;;
62798;SDS011;48842;51.046;13.796;2023-06-22T01:58:30;10.97;;;9.97;;
62798;SDS011;48842;51.046;13.796;2023-06-22T02:00:58;10.30;;;9.30;;
62798;SDS011;48842;51.046;13.796;2023-06-22T02:03:30;10.13;;;9.10;;
62798;SDS011;48842;51.046;13.796;2023-06-22T02:06:06;9.90;;;9.00;;
62798;SDS011;48842;51.046;13.796;2023-06-22T02:08:41;10.50;;;9.60;;
62798;SDS011;48842;51.046;13.796;2023-06-22T02:11:11;10.47;;;9.37;;
62798;SDS011;48842;51.046;13.796;2023-06-22T02:13:39;10.07;;;9.07;;
62798;SDS011;48842;51.046;13.796;2023-06-22T02:16:08;10.87;;;9.77;;
62798;SDS011;48842;51.046;13.796;2023-06-22T02:18:35;10.93;;;9.80;;
62798;SDS011;48842;51.046;13.796;2023-06-22T02:21:01;10.97;;;9.97;;
62798;SDS011;48842;51.046;13.796;2023-06-22T02:23:27;9.83;;;8.90;;
62798;SDS011;48842;51.046;13.796;2023-06-22T02:25:53;11.00;;;9.80;;
62798;SDS011;48842;51.046;13.796;2023-06-22T02:28:18;10.97;;;9.80;;
62798;SDS011;48842;51.046;13.796;2023-06-22T02:30:43;11.63;;;9.60;;
62798;SDS011;48842;51.046;13.796;2023-06-22T02:33:08;12.00;;;10.80;;
62798;SDS011;48842;51.046;13.796;2023-06-22T02:35:34;11.73;;;9.90;;
62798;SDS011;48842;51.046;13.796;2023-06-22T02:38:01;11.13;;;10.10;;
62798;SDS011;48842;51.046;13.796;2023-06-22T02:40:27;10.60;;;9.50;;
62798;SDS011;48842;51.046;13.796;2023-06-22T02:42:54;10.03;;;9.03;;
62798;SDS011;48842;51.046;13.796;2023-06-22T02:45:19;10.90;;;9.60;;
62798;SDS011;48842;51.046;13.796;2023-06-22T02:47:45;12.30;;;10.50;;
62798;SDS011;48842;51.046;13.796;2023-06-22T02:50:10;10.60;;;9.50;;
62798;SDS011;48842;51.046;13.796;2023-06-22T02:52:35;13.00;;;10.60;;
62798;SDS011;48842;51.046;13.796;2023-06-22T02:55:01;11.60;;;10.20;;
62798;SDS011;48842;51.046;13.796;2023-06-22T02:57:26;16.73;;;11.10;;
62798;SDS011;48842;51.046;13.796;2023-06-22T02:59:51;12.13;;;10.93;;
62798;SDS011;48842;51.046;13.796;2023-06-22T03:02:16;10.83;;;9.47;;
62798;SDS011;48842;51.046;13.796;2023-06-22T03:04:42;13.10;;;9.53;;
62798;SDS011;48842;51.046;13.796;2023-06-22T03:07:08;10.23;;;9.23;;
62798;SDS011;48842;51.046;13.796;2023-06-22T03:09:33;19.80;;;9.70;;
62798;SDS011;48842;51.046;13.796;2023-06-22T03:11:58;10.87;;;9.80;;
62798;SDS011;48842;51.046;13.796;2023-06-22T03:14:24;13.30;;;10.27;;
62798;SDS011;48842;51.046;13.796;2023-06-22T03:16:49;11.20;;;9.83;;
62798;SDS011;48842;51.046;13.796;2023-06-22T03:19:14;11.37;;;10.20;;
62798;SDS011;48842;51.046;13.796;2023-06-22T03:21:39;11.13;;;10.10;;
62798;SDS011;48842;51.046;13.796;2023-06-22T03:24:05;11.57;;;10.40;;
62798;SDS011;48842;51.046;13.796;2023-06-22T03:26:31;12.00;;;10.03;;
62798;SDS011;48842;51.046;13.796;2023-06-22T03:28:57;15.43;;;9.40;;
62798;SDS011;48842;51.046;13.796;2023-06-22T03:31:22;10.00;;;8.87;;
62798;SDS011;48842;51.046;13.796;2023-06-22T03:33:48;10.70;;;9.70;;
62798;SDS011;48842;51.046;13.796;2023-06-22T03:36:14;13.80;;;10.43;;
62798;SDS011;48842;51.046;13.796;2023-06-22T03:38:43;11.10;;;9.57;;
62798;SDS011;48842;51.046;13.796;2023-06-22T03:41:09;12.73;;;9.60;;
62798;SDS011;48842;51.046;13.796;2023-06-22T03:43:34;12.87;;;10.10;;
62798;SDS011;48842;51.046;13.796;2023-06-22T03:46:00;10.40;;;9.40;;
62798;SDS011;48842;51.046;13.796;2023-06-22T03:48:25;10.77;;;9.60;;
62798;SDS011;48842;51.046;13.796;2023-06-22T03:50:50;12.40;;;10.90;;
62798;SDS011;48842;51.046;13.796;2023-06-22T03:53:15;11.20;;;10.10;;
62798;SDS011;48842;51.046;13.796;2023-06-22T03:55:47;12.33;;;9.93;;
62798;SDS011;48842;51.046;13.796;2023-06-22T03:58:15;16.00;;;10.20;;
62798;SDS011;48842;51.046;13.796;2023-06-22T04:00:40;13.67;;;11.00;;
62798;SDS011;48842;51.046;13.796;2023-06-22T04:03:05;12.70;;;10.07;;
62798;SDS011;48842;51.046;13.796;2023-06-22T04:05:32;13.83;;;10.77;;
62798;SDS011;48842;51.046;13.796;2023-06-22T04:07:57;12.67;;;10.53;;
62798;SDS011;48842;51.046;13.796;2023-06-22T04:10:22;14.07;;;10.63;;
62798;SDS011;48842;51.046;13.796;2023-06-22T04:12:48;15.87;;;10.80;;
62798;SDS011;48842;51.046;13.796;2023-06-22T04:15:13;14.30;;;10.63;;
62798;SDS011;48842;51.046;13.796;2023-06-22T04:17:38;11.10;;;9.70;;
62798;SDS011;48842;51.046;13.796;2023-06-22T04:20:04;11.97;;;10.77;;
62798;SDS011;48842;51.046;13.796;2023-06-22T04:22:30;12.23;;;11.03;;
62798;SDS011;48842;51.046;13.796;2023-06-22T04:24:55;12.37;;;10.33;;
62798;SDS011;48842;51.046;13.796;2023-06-22T04:27:20;12.17;;;10.97;;
62798;SDS011;48842;51.046;13.796;2023-06-22T04:29:48;11.40;;;10.03;;
62798;SDS011;48842;51.046;13.796;2023-06-22T04:32:14;12.40;;;11.10;;
62798;SDS011;48842;51.046;13.796;2023-06-22T04:34:40;15.17;;;10.13;;
62798;SDS011;48842;51.046;13.796;2023-06-22T04:37:05;13.73;;;10.77;;
62798;SDS011;48842;51.046;13.796;2023-06-22T04:39:30;13.90;;;11.20;;
62798;SDS011;48842;51.046;13.796;2023-06-22T04:41:56;16.30;;;11.27;;
62798;SDS011;48842;51.046;13.796;2023-06-22T04:44:25;12.83;;;10.87;;
62798;SDS011;48842;51.046;13.796;2023-06-22T04:46:50;13.00;;;11.70;;
62798;SDS011;48842;51.046;13.796;2023-06-22T04:49:22;13.40;;;11.93;;
62798;SDS011;48842;51.046;13.796;2023-06-22T04:51:48;12.87;;;11.47;;
62798;SDS011;48842;51.046;13.796;2023-06-22T04:54:16;15.90;;;11.83;;
62798;SDS011;48842;51.046;13.796;2023-06-22T04:56:41;12.97;;;11.67;;
62798;SDS011;48842;51.046;13.796;2023-06-22T04:59:07;14.57;;;11.27;;
62798;SDS011;48842;51.046;13.796;2023-06-22T05:01:32;12.53;;;11.10;;
62798;SDS011;48842;51.046;13.796;2023-06-22T05:03:59;12.10;;;10.90;;
62798;SDS011;48842;51.046;13.796;2023-06-22T05:06:26;14.40;;;11.77;;
62798;SDS011;48842;51.046;13.796;2023-06-22T05:08:54;15.07;;;12.40;;
62798;SDS011;48842;51.046;13.796;2023-06-22T05:11:24;13.23;;;11.70;;
62798;SDS011;48842;51.046;13.796;2023-06-22T05:13:50;12.07;;;10.87;;
62798;SDS011;48842;51.046;13.796;2023-06-22T05:16:15;12.57;;;11.47;;
62798;SDS011;48842;51.046;13.796;2023-06-22T05:18:41;12.60;;;11.43;;
62798;SDS011;48842;51.046;13.796;2023-06-22T05:21:06;11.10;;;9.93;;
62798;SDS011;48842;51.046;13.796;2023-06-22T05:23:32;13.20;;;11.53;;
62798;SDS011;48842;51.046;13.796;2023-06-22T05:25:57;16.33;;;12.43;;
62798;SDS011;48842;51.046;13.796;2023-06-22T05:28:22;13.40;;;12.00;;
62798;SDS011;48842;51.046;13.796;2023-06-22T05:30:48;12.43;;;11.13;;
62798;SDS011;48842;51.046;13.796;2023-06-22T05:33:13;11.23;;;10.10;;
62798;SDS011;48842;51.046;13.796;2023-06-22T05:35:38;12.90;;;11.60;;
62798;SDS011;48842;51.046;13.796;2023-06-22T05:38:03;12.80;;;11.30;;
62798;SDS011;48842;51.046;13.796;2023-06-22T05:40:29;12.83;;;11.10;;
62798;SDS011;48842;51.046;13.796;2023-06-22T05:42:57;13.63;;;10.80;;
62798;SDS011;48842;51.046;13.796;2023-06-22T05:45:22;16.90;;;10.53;;
62798;SDS011;48842;51.046;13.796;2023-06-22T05:47:48;16.70;;;12.00;;
62798;SDS011;48842;51.046;13.796;2023-06-22T05:50:13;13.00;;;10.70;;
62798;SDS011;48842;51.046;13.796;2023-06-22T05:52:38;11.83;;;10.00;;
62798;SDS011;48842;51.046;13.796;2023-06-22T05:55:04;17.20;;;11.40;;
62798;SDS011;48842;51.046;13.796;2023-06-22T05:57:29;16.30;;;10.60;;
62798;SDS011;48842;51.046;13.796;2023-06-22T05:59:55;14.40;;;11.60;;
62798;SDS011;48842;51.046;13.796;2023-06-22T06:02:20;12.23;;;10.57;;
62798;SDS011;48842;51.046;13.796;2023-06-22T06:04:45;14.00;;;12.33;;
62798;SDS011;48842;51.046;13.796;2023-06-22T06:07:11;16.90;;;11.23;;
62798;SDS011;48842;51.046;13.796;2023-06-22T06:09:36;17.60;;;11.03;;
62798;SDS011;48842;51.046;13.796;2023-06-22T06:12:01;14.03;;;10.67;;
62798;SDS011;48842;51.046;13.796;2023-06-22T06:14:28;18.70;;;10.90;;
62798;SDS011;48842;51.046;13.796;2023-06-22T06:16:53;14.10;;;11.10;;
62798;SDS011;48842;51.046;13.796;2023-06-22T06:19:18;11.57;;;10.47;;
62798;SDS011;48842;51.046;13.796;2023-06-22T06:21:44;11.03;;;9.87;;
62798;SDS011;48842;51.046;13.796;2023-06-22T06:24:09;12.00;;;9.77;;
62798;SDS011;48842;51.046;13.796;2023-06-22T06:26:35;11.93;;;10.33;;
62798;SDS011;48842;51.046;13.796;2023-06-22T06:29:00;12.93;;;10.50;;
62798;SDS011;48842;51.046;13.796;2023-06-22T06:31:27;12.43;;;9.77;;
62798;SDS011;48842;51.046;13.796;2023-06-22T06:33:55;11.13;;;10.00;;
62798;SDS011;48842;51.046;13.796;2023-06-22T06:36:21;10.97;;;10.03;;
62798;SDS011;48842;51.046;13.796;2023-06-22T06:38:46;24.77;;;10.50;;
62798;SDS011;48842;51.046;13.796;2023-06-22T06:41:13;15.30;;;10.00;;
62798;SDS011;48842;51.046;13.796;2023-06-22T06:43:38;11.67;;;10.30;;
62798;SDS011;48842;51.046;13.796;2023-06-22T06:46:04;10.67;;;9.57;;
62798;SDS011;48842;51.046;13.796;2023-06-22T06:48:29;9.90;;;8.90;;
62798;SDS011;48842;51.046;13.796;2023-06-22T06:50:54;18.77;;;9.43;;
62798;SDS011;48842;51.046;13.796;2023-06-22T06:53:20;10.70;;;9.60;;
62798;SDS011;48842;51.046;13.796;2023-06-22T06:55:45;10.00;;;9.00;;
62798;SDS011;48842;51.046;13.796;2023-06-22T06:58:10;10.90;;;9.80;;
62798;SDS011;48842;51.046;13.796;2023-06-22T07:00:38;14.10;;;10.10;;
62798;SDS011;48842;51.046;13.796;2023-06-22T07:03:03;14.70;;;10.70;;
62798;SDS011;48842;51.046;13.796;2023-06-22T07:05:29;10.80;;;9.70;;
62798;SDS011;48842;51.046;13.796;2023-06-22T07:07:54;11.17;;;10.07;;
62798;SDS011;48842;51.046;13.796;2023-06-22T07:10:20;10.77;;;9.73;;
62798;SDS011;48842;51.046;13.796;2023-06-22T07:12:45;12.10;;;10.03;;
62798;SDS011;48842;51.046;13.796;2023-06-22T07:15:11;11.73;;;9.43;;
62798;SDS011;48842;51.046;13.796;2023-06-22T07:17:37;11.80;;;10.70;;
62798;SDS011;48842;51.046;13.796;2023-06-22T07:20:05;11.60;;;10.60;;
62798;SDS011;48842;51.046;13.796;2023-06-22T07:22:34;11.63;;;9.97;;
62798;SDS011;48842;51.046;13.796;2023-06-22T07:25:00;17.23;;;10.27;;
62798;SDS011;48842;51.046;13.796;2023-06-22T07:27:26;12.37;;;10.50;;
62798;SDS011;48842;51.046;13.796;2023-06-22T07:29:51;11.70;;;10.37;;
62798;SDS011;48842;51.046;13.796;2023-06-22T07:32:16;11.93;;;10.50;;
62798;SDS011;48842;51.046;13.796;2023-06-22T07:34:42;12.63;;;11.37;;
62798;SDS011;48842;51.046;13.796;2023-06-22T07:37:08;14.40;;;10.27;;
62798;SDS011;48842;51.046;13.796;2023-06-22T07:39:33;14.80;;;10.43;;
62798;SDS011;48842;51.046;13.796;2023-06-22T07:41:59;11.23;;;9.83;;
62798;SDS011;48842;51.046;13.796;2023-06-22T07:44:24;10.57;;;9.70;;
62798;SDS011;48842;51.046;13.796;2023-06-22T07:46:50;12.03;;;10.60;;
62798;SDS011;48842;51.046;13.796;2023-06-22T07:49:16;11.43;;;10.43;;
62798;SDS011;48842;51.046;13.796;2023-06-22T07:51:42;17.60;;;10.80;;
62798;SDS011;48842;51.046;13.796;2023-06-22T07:54:08;11.50;;;10.00;;
62798;SDS011;48842;51.046;13.796;2023-06-22T07:56:34;11.37;;;10.17;;
62798;SDS011;48842;51.046;13.796;2023-06-22T07:59:01;11.07;;;10.17;;
62798;SDS011;48842;51.046;13.796;2023-06-22T08:01:28;10.70;;;9.70;;
62798;SDS011;48842;51.046;13.796;2023-06-22T08:03:54;10.90;;;9.73;;
62798;SDS011;48842;51.046;13.796;2023-06-22T08:06:19;10.73;;;9.63;;
62798;SDS011;48842;51.046;13.796;2023-06-22T08:08:44;10.60;;;9.63;;
62798;SDS011;48842;51.046;13.796;2023-06-22T08:11:12;12.00;;;10.07;;
62798;SDS011;48842;51.046;13.796;2023-06-22T08:13:38;10.43;;;9.43;;
62798;SDS011;48842;51.046;13.796;2023-06-22T08:16:03;10.40;;;9.50;;
62798;SDS011;48842;51.046;13.796;2023-06-22T08:18:29;9.70;;;8.90;;
62798;SDS011;48842;51.046;13.796;2023-06-22T08:20:54;12.23;;;9.30;;
62798;SDS011;48842;51.046;13.796;2023-06-22T08:23:19;10.60;;;9.47;;
62798;SDS011;48842;51.046;13.796;2023-06-22T08:25:44;10.77;;;9.50;;
62798;SDS011;48842;51.046;13.796;2023-06-22T08:28:10;9.43;;;8.63;;
62798;SDS011;48842;51.046;13.796;2023-06-22T08:30:35;9.07;;;8.27;;
62798;SDS011;48842;51.046;13.796;2023-06-22T08:33:01;12.30;;;8.50;;
62798;SDS011;48842;51.046;13.796;2023-06-22T08:35:26;9.37;;;8.40;;
62798;SDS011;48842;51.046;13.796;2023-06-22T08:37:51;11.97;;;8.00;;
62798;SDS011;48842;51.046;13.796;2023-06-22T08:40:19;10.30;;;8.40;;
62798;SDS011;48842;51.046;13.796;2023-06-22T08:42:46;8.70;;;7.80;;
62798;SDS011;48842;51.046;13.796;2023-06-22T08:45:12;8.83;;;8.03;;
62798;SDS011;48842;51.046;13.796;2023-06-22T08:47:38;8.43;;;7.73;;
62798;SDS011;48842;51.046;13.796;2023-06-22T08:50:12;8.47;;;7.77;;
62798;SDS011;48842;51.046;13.796;2023-06-22T08:52:46;9.17;;;7.93;;
62798;SDS011;48842;51.046;13.796;2023-06-22T08:55:11;8.87;;;7.67;;
62798;SDS011;48842;51.046;13.796;2023-06-22T08:57:37;7.53;;;6.83;;
62798;SDS011;48842;51.046;13.796;2023-06-22T09:00:07;8.73;;;6.87;;
62798;SDS011;48842;51.046;13.796;2023-06-22T09:02:52;9.87;;;8.80;;
62798;SDS011;48842;51.046;13.796;2023-06-22T09:05:17;8.27;;;7.47;;
62798;SDS011;48842;51.046;13.796;2023-06-22T09:07:43;9.20;;;8.20;;
62798;SDS011;48842;51.046;13.796;2023-06-22T09:10:08;9.17;;;8.10;;
62798;SDS011;48842;51.046;13.796;2023-06-22T09:12:34;9.73;;;8.20;;
62798;SDS011;48842;51.046;13.796;2023-06-22T09:15:00;7.87;;;7.17;;
62798;SDS011;48842;51.046;13.796;2023-06-22T09:17:26;8.03;;;7.33;;
62798;SDS011;48842;51.046;13.796;2023-06-22T09:19:52;8.20;;;7.40;;
62798;SDS011;48842;51.046;13.796;2023-06-22T09:22:17;9.90;;;7.80;;
62798;SDS011;48842;51.046;13.796;2023-06-22T09:24:42;7.53;;;6.83;;
62798;SDS011;48842;51.046;13.796;2023-06-22T09:27:07;8.43;;;7.37;;
62798;SDS011;48842;51.046;13.796;2023-06-22T09:29:33;7.37;;;6.77;;
62798;SDS011;48842;51.046;13.796;2023-06-22T09:31:58;8.00;;;7.30;;
62798;SDS011;48842;51.046;13.796;2023-06-22T09:34:23;8.37;;;7.53;;
62798;SDS011;48842;51.046;13.796;2023-06-22T09:36:49;8.23;;;7.43;;
62798;SDS011;48842;51.046;13.796;2023-06-22T09:39:14;8.70;;;7.90;;
62798;SDS011;48842;51.046;13.796;2023-06-22T09:41:39;7.40;;;6.77;;
62798;SDS011;48842;51.046;13.796;2023-06-22T09:44:04;7.97;;;7.27;;
62798;SDS011;48842;51.046;13.796;2023-06-22T09:46:30;8.07;;;7.37;;
62798;SDS011;48842;51.046;13.796;2023-06-22T09:48:55;8.63;;;7.83;;
62798;SDS011;48842;51.046;13.796;2023-06-22T09:51:20;8.50;;;7.70;;
62798;SDS011;48842;51.046;13.796;2023-06-22T09:53:46;8.33;;;7.47;;
62798;SDS011;48842;51.046;13.796;2023-06-22T09:56:12;8.17;;;7.37;;
62798;SDS011;48842;51.046;13.796;2023-06-22T09:58:40;8.43;;;7.63;;
62798;SDS011;48842;51.046;13.796;2023-06-22T10:01:09;8.83;;;7.97;;
62798;SDS011;48842;51.046;13.796;2023-06-22T10:03:35;7.80;;;7.20;;
62798;SDS011;48842;51.046;13.796;2023-06-22T10:06:01;11.33;;;7.70;;
62798;SDS011;48842;51.046;13.796;2023-06-22T10:08:26;7.87;;;7.07;;
62798;SDS011;48842;51.046;13.796;2023-06-22T10:10:51;7.97;;;7.20;;
62798;SDS011;48842;51.046;13.796;2023-06-22T10:13:17;8.20;;;7.37;;
62798;SDS011;48842;51.046;13.796;2023-06-22T10:15:44;7.60;;;6.93;;
62798;SDS011;48842;51.046;13.796;2023-06-22T10:18:16;9.03;;;8.30;;
62798;SDS011;48842;51.046;13.796;2023-06-22T10:20:41;8.57;;;7.87;;
62798;SDS011;48842;51.046;13.796;2023-06-22T10:23:07;9.80;;;8.90;;
62798;SDS011;48842;51.046;13.796;2023-06-22T10:25:32;8.73;;;7.83;;
62798;SDS011;48842;51.046;13.796;2023-06-22T10:27:57;10.07;;;8.67;;
62798;SDS011;48842;51.046;13.796;2023-06-22T10:30:22;9.17;;;8.30;;
62798;SDS011;48842;51.046;13.796;2023-06-22T10:32:48;8.40;;;7.70;;
62798;SDS011;48842;51.046;13.796;2023-06-22T10:35:13;10.03;;;7.73;;
62798;SDS011;48842;51.046;13.796;2023-06-22T10:37:41;12.50;;;8.27;;
62798;SDS011;48842;51.046;13.796;2023-06-22T10:40:08;8.47;;;7.87;;
62798;SDS011;48842;51.046;13.796;2023-06-22T10:42:34;12.37;;;8.87;;
62798;SDS011;48842;51.046;13.796;2023-06-22T10:44:59;13.67;;;8.20;;
62798;SDS011;48842;51.046;13.796;2023-06-22T10:47:24;12.80;;;8.10;;
62798;SDS011;48842;51.046;13.796;2023-06-22T10:49:49;8.57;;;7.87;;
62798;SDS011;48842;51.046;13.796;2023-06-22T10:52:14;10.00;;;9.00;;
62798;SDS011;48842;51.046;13.796;2023-06-22T10:54:40;9.47;;;8.40;;
62798;SDS011;48842;51.046;13.796;2023-06-22T10:57:06;8.17;;;7.47;;
62798;SDS011;48842;51.046;13.796;2023-06-22T10:59:31;8.83;;;8.00;;
62798;SDS011;48842;51.046;13.796;2023-06-22T11:01:57;8.93;;;8.03;;
62798;SDS011;48842;51.046;13.796;2023-06-22T11:04:23;8.97;;;8.07;;
62798;SDS011;48842;51.046;13.796;2023-06-22T11:06:48;10.50;;;8.47;;
62798;SDS011;48842;51.046;13.796;2023-06-22T11:09:14;8.77;;;8.07;;
62798;SDS011;48842;51.046;13.796;2023-06-22T11:11:44;9.17;;;8.33;;
62798;SDS011;48842;51.046;13.796;2023-06-22T11:14:09;9.00;;;8.20;;
62798;SDS011;48842;51.046;13.796;2023-06-22T11:16:35;9.30;;;8.40;;
62798;SDS011;48842;51.046;13.796;2023-06-22T11:19:00;15.40;;;7.90;;
62798;SDS011;48842;51.046;13.796;2023-06-22T11:21:25;16.40;;;8.30;;
62798;SDS011;48842;51.046;13.796;2023-06-22T11:23:50;10.13;;;8.07;;
62798;SDS011;48842;51.046;13.796;2023-06-22T11:26:16;7.90;;;7.10;;
62798;SDS011;48842;51.046;13.796;2023-06-22T11:28:41;9.37;;;7.80;;
62798;SDS011;48842;51.046;13.796;2023-06-22T11:31:06;14.83;;;8.97;;
62798;SDS011;48842;51.046;13.796;2023-06-22T11:33:32;8.57;;;7.50;;
62798;SDS011;48842;51.046;13.796;2023-06-22T11:35:57;7.63;;;6.87;;
62798;SDS011;48842;51.046;13.796;2023-06-22T11:38:22;8.97;;;8.17;;
62798;SDS011;48842;51.046;13.796;2023-06-22T11:40:47;8.50;;;7.80;;
62798;SDS011;48842;51.046;13.796;2023-06-22T11:43:13;8.63;;;7.90;;
62798;SDS011;48842;51.046;13.796;2023-06-22T11:45:39;13.97;;;8.07;;
62798;SDS011;48842;51.046;13.796;2023-06-22T11:48:05;9.80;;;8.33;;
62798;SDS011;48842;51.046;13.796;2023-06-22T11:50:30;9.30;;;8.57;;
62798;SDS011;48842;51.046;13.796;2023-06-22T11:53:00;17.03;;;8.80;;
62798;SDS011;48842;51.046;13.796;2023-06-22T11:55:25;13.17;;;8.00;;
62798;SDS011;48842;51.046;13.796;2023-06-22T11:57:53;9.40;;;8.17;;
62798;SDS011;48842;51.046;13.796;2023-06-22T12:00:24;8.43;;;7.73;;
62798;SDS011;48842;51.046;13.796;2023-06-22T12:02:50;9.50;;;8.17;;
62798;SDS011;48842;51.046;13.796;2023-06-22T12:05:17;10.63;;;9.10;;
62798;SDS011;48842;51.046;13.796;2023-06-22T12:07:45;12.87;;;7.90;;
62798;SDS011;48842;51.046;13.796;2023-06-22T12:10:10;7.80;;;7.03;;
62798;SDS011;48842;51.046;13.796;2023-06-22T12:12:36;11.33;;;7.67;;
62798;SDS011;48842;51.046;13.796;2023-06-22T12:15:01;8.17;;;7.57;;
62798;SDS011;48842;51.046;13.796;2023-06-22T12:17:28;9.80;;;7.90;;
62798;SDS011;48842;51.046;13.796;2023-06-22T12:19:54;9.00;;;8.10;;
62798;SDS011;48842;51.046;13.796;2023-06-22T12:22:19;14.20;;;7.93;;
62798;SDS011;48842;51.046;13.796;2023-06-22T12:24:44;8.83;;;7.87;;
62798;SDS011;48842;51.046;13.796;2023-06-22T12:27:09;9.03;;;8.00;;
62798;SDS011;48842;51.046;13.796;2023-06-22T12:29:35;9.90;;;8.70;;
62798;SDS011;48842;51.046;13.796;2023-06-22T12:32:00;9.63;;;8.63;;
62798;SDS011;48842;51.046;13.796;2023-06-22T12:34:25;8.10;;;7.47;;
62798;SDS011;48842;51.046;13.796;2023-06-22T12:36:50;8.90;;;8.00;;
62798;SDS011;48842;51.046;13.796;2023-06-22T12:39:16;8.97;;;8.17;;
62798;SDS011;48842;51.046;13.796;2023-06-22T12:41:41;9.60;;;8.07;;
62798;SDS011;48842;51.046;13.796;2023-06-22T12:44:06;9.57;;;7.23;;
62798;SDS011;48842;51.046;13.796;2023-06-22T12:46:32;8.80;;;8.10;;
62798;SDS011;48842;51.046;13.796;2023-06-22T12:49:02;13.77;;;7.40;;
62798;SDS011;48842;51.046;13.796;2023-06-22T12:51:28;8.20;;;7.40;;
62798;SDS011;48842;51.046;13.796;2023-06-22T12:53:54;10.60;;;7.57;;
62798;SDS011;48842;51.046;13.796;2023-06-22T12:56:19;7.97;;;7.27;;
62798;SDS011;48842;51.046;13.796;2023-06-22T12:58:44;9.50;;;7.47;;
62798;SDS011;48842;51.046;13.796;2023-06-22T13:01:09;8.80;;;7.97;;
62798;SDS011;48842;51.046;13.796;2023-06-22T13:03:35;8.37;;;7.63;;
62798;SDS011;48842;51.046;13.796;2023-06-22T13:06:00;8.30;;;7.60;;
62798;SDS011;48842;51.046;13.796;2023-06-22T13:08:25;7.80;;;7.10;;
62798;SDS011;48842;51.046;13.796;2023-06-22T13:10:50;8.00;;;7.40;;
62798;SDS011;48842;51.046;13.796;2023-06-22T13:13:16;9.40;;;7.37;;
62798;SDS011;48842;51.046;13.796;2023-06-22T13:15:41;8.63;;;7.83;;
62798;SDS011;48842;51.046;13.796;2023-06-22T13:18:06;10.33;;;7.90;;
62798;SDS011;48842;51.046;13.796;2023-06-22T13:20:31;12.73;;;6.60;;
62798;SDS011;48842;51.046;13.796;2023-06-22T13:22:57;7.13;;;6.50;;
62798;SDS011;48842;51.046;13.796;2023-06-22T13:25:22;6.80;;;6.27;;
62798;SDS011;48842;51.046;13.796;2023-06-22T13:27:51;8.37;;;7.57;;
62798;SDS011;48842;51.046;13.796;2023-06-22T13:30:16;7.17;;;6.50;;
62798;SDS011;48842;51.046;13.796;2023-06-22T13:32:41;9.33;;;6.57;;
62798;SDS011;48842;51.046;13.796;2023-06-22T13:35:08;9.67;;;6.13;;
62798;SDS011;48842;51.046;13.796;2023-06-22T13:37:36;6.57;;;5.97;;
62798;SDS011;48842;51.046;13.796;2023-06-22T13:40:02;5.90;;;5.60;;
62798;SDS011;48842;51.046;13.796;2023-06-22T13:42:31;7.77;;;5.90;;
62798;SDS011;48842;51.046;13.796;2023-06-22T13:44:56;5.57;;;5.27;;
62798;SDS011;48842;51.046;13.796;2023-06-22T13:47:22;5.57;;;5.17;;
62798;SDS011;48842;51.046;13.796;2023-06-22T13:49:47;6.20;;;5.20;;
62798;SDS011;48842;51.046;13.796;2023-06-22T13:52:12;5.30;;;4.80;;
62798;SDS011;48842;51.046;13.796;2023-06-22T13:54:37;5.07;;;4.78;;
62798;SDS011;48842;51.046;13.796;2023-06-22T13:57:03;5.07;;;4.60;;
62798;SDS011;48842;51.046;13.796;2023-06-22T13:59:28;4.50;;;4.20;;
62798;SDS011;48842;51.046;13.796;2023-06-22T14:01:53;9.32;;;4.47;;
62798;SDS011;48842;51.046;13.796;2023-06-22T14:04:19;7.53;;;4.30;;
62798;SDS011;48842;51.046;13.796;2023-06-22T14:06:44;4.65;;;4.25;;
62798;SDS011;48842;51.046;13.796;2023-06-22T14:09:09;4.97;;;4.57;;
62798;SDS011;48842;51.046;13.796;2023-06-22T14:11:34;5.22;;;4.18;;
62798;SDS011;48842;51.046;13.796;2023-06-22T14:13:59;5.10;;;4.63;;
62798;SDS011;48842;51.046;13.796;2023-06-22T14:16:24;5.37;;;4.97;;
62798;SDS011;48842;51.046;13.796;2023-06-22T14:18:50;11.73;;;5.27;;
62798;SDS011;48842;51.046;13.796;2023-06-22T14:21:15;5.20;;;4.90;;
62798;SDS011;48842;51.046;13.796;2023-06-22T14:23:40;6.30;;;5.70;;
62798;SDS011;48842;51.046;13.796;2023-06-22T14:26:05;6.20;;;5.60;;